MSC Carolina — 3ECV5 — position and weather

sailwx.info

Track history (hours):
 
Tides and Currents Weather Stations Pressure Air Temp Water Temp Dewpoint Dewpoint Depression Visibility Wind Speed Wind Dir Waves Ship Positions

MSC Carolina

Last reported at 2017-Mar-21 08:34 UTC. Time now 2017-Mar-30 12:49 UTC.
Position S 20°07' E 057°60'.
Warning: this ship's position is 9 days out of date.

Length 275 m; draft 12.4 m.

Type: Ship (hazmat cat B). MMSI: 371475000.

Date/timePositionNaut miles runAvg speedWind from/ knotsBaromVisibWave heightAir tempDewpointWater temp
2017-Mar-21 08:34S 20°07' E 057°60'1818.2
2017-Mar-21 07:33S 19°57' E 057°44'1515.2
2017-Mar-21 06:33S 20°03' E 057°29'5 5.2
2017-Mar-21 05:33S 20°08' E 057°30'0 0.0
2017-Mar-21 04:33S 20°08' E 057°30'0 0.0
2017-Mar-21 03:33S 20°08' E 057°30'0 0.0
2017-Mar-21 02:33S 20°08' E 057°30'0 0.0
2017-Mar-21 01:33S 20°08' E 057°30'0 0.0
2017-Mar-21 00:33S 20°08' E 057°30'0 0.0
2017-Mar-20 23:33S 20°08' E 057°30'0 0.0
2017-Mar-20 22:33S 20°08' E 057°30'0 0.0
2017-Mar-20 21:32S 20°08' E 057°30'0 0.0
2017-Mar-20 20:32S 20°08' E 057°30'0 0.0
2017-Mar-20 19:32S 20°08' E 057°30'0 0.0
2017-Mar-20 18:32S 20°08' E 057°30'0 0.0
2017-Mar-20 17:29S 20°08' E 057°30'0 0.0
2017-Mar-20 16:32S 20°08' E 057°30'0 0.0
2017-Mar-20 15:32S 20°08' E 057°30'0 0.0
2017-Mar-20 14:32S 20°08' E 057°30'0 0.0
2017-Mar-20 13:32S 20°08' E 057°30'0 0.0
2017-Mar-20 12:29S 20°08' E 057°30'0 0.0
2017-Mar-20 11:32S 20°08' E 057°30'0 0.0
2017-Mar-20 10:29S 20°08' E 057°30'0 0.0
2017-Mar-20 09:32S 20°08' E 057°30'0 0.0
2017-Mar-20 08:32S 20°08' E 057°30'0 0.0
2017-Mar-20 07:32S 20°08' E 057°30'0 0.0
2017-Mar-20 06:29S 20°08' E 057°30'0 0.0
2017-Mar-20 05:32S 20°08' E 057°30'0 0.0
2017-Mar-20 04:32S 20°08' E 057°30'0 0.0
2017-Mar-20 03:32S 20°08' E 057°30'0 0.0
2017-Mar-20 02:32S 20°08' E 057°30'0 0.0
2017-Mar-20 01:32S 20°08' E 057°30'0 0.0
2017-Mar-20 00:32S 20°08' E 057°30'0 0.0
2017-Mar-19 23:32S 20°08' E 057°30'0 0.0
2017-Mar-19 22:29S 20°08' E 057°30'0 0.0
2017-Mar-19 21:32S 20°08' E 057°30'0 0.0
2017-Mar-19 20:32S 20°08' E 057°30'0 0.0
2017-Mar-19 19:32S 20°08' E 057°30'0 0.0
2017-Mar-19 18:32S 20°08' E 057°30'1 1.1
2017-Mar-19 17:33S 20°08' E 057°28'6 6.4
2017-Mar-19 16:34S 20°04' E 057°23'1 1.0
2017-Mar-19 15:34S 20°04' E 057°24'1 1.3
2017-Mar-19 14:34S 20°03' E 057°24'4 3.8
2017-Mar-19 13:33S 20°03' E 057°20'6 6.2
2017-Mar-19 12:34S 20°05' E 057°13'1 1.2
2017-Mar-19 11:33S 20°05' E 057°14'1 1.3
2017-Mar-19 10:33S 20°03' E 057°15'1 1.2
2017-Mar-19 09:34S 20°03' E 057°16'16 2.9
2017-Mar-19 04:05S 20°15' E 057°05'612.4
2017-Mar-19 03:34S 20°17' E 056°59'1212.1
2017-Mar-19 02:33S 20°20' E 056°47'3511.5
2017-Mar-18 23:31S 20°31' E 056°11'1211.5
2017-Mar-18 22:30S 20°34' E 055°59'  
Track history (hours):
 
Tides and Currents Weather Stations Pressure Air Temp Water Temp Dewpoint Dewpoint Depression Visibility Wind Speed Wind Dir Waves Ship Positions

MSC Carolina

Last reported at 2017-Mar-21 08:34 UTC. Time now 2017-Mar-30 12:49 UTC.
Position S 20°07' E 057°60'.
Warning: this ship's position is 9 days out of date.

Length 275 m; draft 12.4 m.

Type: Ship (hazmat cat B). MMSI: 371475000.

Date/timePositionNaut miles runAvg speedWind from/ knotsBaromVisibWave heightAir tempDewpointWater temp
2017-Mar-21 08:34S 20°07' E 057°60'1818.2
2017-Mar-21 07:33S 19°57' E 057°44'1515.2
2017-Mar-21 06:33S 20°03' E 057°29'5 5.2
2017-Mar-21 05:33S 20°08' E 057°30'0 0.0
2017-Mar-21 04:33S 20°08' E 057°30'0 0.0
2017-Mar-21 03:33S 20°08' E 057°30'0 0.0
2017-Mar-21 02:33S 20°08' E 057°30'0 0.0
2017-Mar-21 01:33S 20°08' E 057°30'0 0.0
2017-Mar-21 00:33S 20°08' E 057°30'0 0.0
2017-Mar-20 23:33S 20°08' E 057°30'0 0.0
2017-Mar-20 22:33S 20°08' E 057°30'0 0.0
2017-Mar-20 21:32S 20°08' E 057°30'0 0.0
2017-Mar-20 20:32S 20°08' E 057°30'0 0.0
2017-Mar-20 19:32S 20°08' E 057°30'0 0.0
2017-Mar-20 18:32S 20°08' E 057°30'0 0.0
2017-Mar-20 17:29S 20°08' E 057°30'0 0.0
2017-Mar-20 16:32S 20°08' E 057°30'0 0.0
2017-Mar-20 15:32S 20°08' E 057°30'0 0.0
2017-Mar-20 14:32S 20°08' E 057°30'0 0.0
2017-Mar-20 13:32S 20°08' E 057°30'0 0.0
2017-Mar-20 12:29S 20°08' E 057°30'0 0.0
2017-Mar-20 11:32S 20°08' E 057°30'0 0.0
2017-Mar-20 10:29S 20°08' E 057°30'0 0.0
2017-Mar-20 09:32S 20°08' E 057°30'0 0.0
2017-Mar-20 08:32S 20°08' E 057°30'0 0.0
2017-Mar-20 07:32S 20°08' E 057°30'0 0.0
2017-Mar-20 06:29S 20°08' E 057°30'0 0.0
2017-Mar-20 05:32S 20°08' E 057°30'0 0.0
2017-Mar-20 04:32S 20°08' E 057°30'0 0.0
2017-Mar-20 03:32S 20°08' E 057°30'0 0.0
2017-Mar-20 02:32S 20°08' E 057°30'0 0.0
2017-Mar-20 01:32S 20°08' E 057°30'0 0.0
2017-Mar-20 00:32S 20°08' E 057°30'0 0.0
2017-Mar-19 23:32S 20°08' E 057°30'0 0.0
2017-Mar-19 22:29S 20°08' E 057°30'0 0.0
2017-Mar-19 21:32S 20°08' E 057°30'0 0.0
2017-Mar-19 20:32S 20°08' E 057°30'0 0.0
2017-Mar-19 19:32S 20°08' E 057°30'0 0.0
2017-Mar-19 18:32S 20°08' E 057°30'1 1.1
2017-Mar-19 17:33S 20°08' E 057°28'6 6.4
2017-Mar-19 16:34S 20°04' E 057°23'1 1.0
2017-Mar-19 15:34S 20°04' E 057°24'1 1.3
2017-Mar-19 14:34S 20°03' E 057°24'4 3.8
2017-Mar-19 13:33S 20°03' E 057°20'6 6.2
2017-Mar-19 12:34S 20°05' E 057°13'1 1.2
2017-Mar-19 11:33S 20°05' E 057°14'1 1.3
2017-Mar-19 10:33S 20°03' E 057°15'1 1.2
2017-Mar-19 09:34S 20°03' E 057°16'16 2.9
2017-Mar-19 04:05S 20°15' E 057°05'612.4
2017-Mar-19 03:34S 20°17' E 056°59'1212.1
2017-Mar-19 02:33S 20°20' E 056°47'3511.5
2017-Mar-18 23:31S 20°31' E 056°11'1211.5
2017-Mar-18 22:30S 20°34' E 055°59'  

Dump ship's entire track history